Time;durP1;ratioP1;P1;durP2;ratioP2;P2;SDS_P1;SDS_P2;PMS_P1;PMS_P2;Temp;Humidity;BMP_temperature;BMP_pressure;BME280_temperature;BME280_humidity;BME280_pressure;Samples;Min_cycle;Max_cycle;Signal;HPM_P1;HPM_P2
2023/09/20 00:00:08;;;;;;;5.87;1.90;;;17.10;99.90;;;;;;4999510;28;20787;-52
2023/09/20 00:02:36;;;;;;;7.57;2.30;;;17.10;99.90;;;;;;4994738;28;20193;-53
2023/09/20 00:05:02;;;;;;;5.40;2.57;;;17.10;99.90;;;;;;4996914;28;20523;-52
2023/09/20 00:07:27;;;;;;;6.47;2.27;;;17.10;95.30;;;;;;4997299;28;20870;-52
2023/09/20 00:09:53;;;;;;;7.90;2.03;;;17.20;94.30;;;;;;4997312;28;20443;-51
2023/09/20 00:12:18;;;;;;;5.47;2.07;;;17.20;68.70;;;;;;4998022;28;20193;-53
2023/09/20 00:14:44;;;;;;;5.23;2.00;;;17.20;54.90;;;;;;4996663;28;20192;-52
2023/09/20 00:17:09;;;;;;;4.87;2.40;;;17.30;45.00;;;;;;4997988;28;20260;-53
2023/09/20 00:19:38;;;;;;;11.00;2.17;;;17.30;40.70;;;;;;4997984;28;20222;-52
2023/09/20 00:22:05;;;;;;;3.93;2.20;;;17.30;41.50;;;;;;5000957;28;20248;-52
2023/09/20 00:24:33;;;;;;;5.90;2.20;;;17.40;18.30;;;;;;5000062;28;20430;-52
2023/09/20 00:26:59;;;;;;;7.10;2.10;;;17.30;13.60;;;;;;5000068;28;20476;-51
2023/09/20 00:29:26;;;;;;;5.40;1.77;;;17.40;8.50;;;;;;4998972;28;20490;-51
2023/09/20 00:31:52;;;;;;;5.93;1.93;;;17.40;6.90;;;;;;4999532;28;20546;-52
2023/09/20 00:34:18;;;;;;;6.50;2.50;;;17.50;1.00;;;;;;5002291;28;20453;-51
2023/09/20 00:36:44;;;;;;;4.60;2.40;;;17.50;1.00;;;;;;4997075;28;20440;-53
2023/09/20 00:39:10;;;;;;;6.43;1.80;;;17.50;1.00;;;;;;5003146;28;20705;-51
2023/09/20 00:41:36;;;;;;;6.77;2.40;;;17.50;1.00;;;;;;4996533;28;20812;-52
2023/09/20 00:44:02;;;;;;;5.50;1.93;;;17.50;1.00;;;;;;4997699;28;20490;-53
2023/09/20 00:46:29;;;;;;;3.00;1.80;;;17.60;1.00;;;;;;4999744;28;20180;-52
2023/09/20 00:48:56;;;;;;;10.00;2.40;;;17.60;1.00;;;;;;4998754;28;20189;-51
2023/09/20 00:51:21;;;;;;;5.63;2.03;;;17.60;1.00;;;;;;4999956;28;20465;-53
2023/09/20 00:53:48;;;;;;;6.40;1.93;;;17.60;1.00;;;;;;4999103;28;20528;-52
2023/09/20 00:56:14;;;;;;;6.57;2.20;;;17.70;1.00;;;;;;5003912;28;20635;-52
2023/09/20 00:58:43;;;;;;;5.27;2.03;;;17.60;1.00;;;;;;5001698;28;20566;-52
2023/09/20 01:01:09;;;;;;;4.20;2.37;;;17.60;1.00;;;;;;5001715;28;20584;-52
2023/09/20 01:03:35;;;;;;;4.90;1.90;;;17.60;1.00;;;;;;5007634;28;20532;-51
2023/09/20 01:06:05;;;;;;;4.83;2.33;;;17.60;1.00;;;;;;5010723;28;20534;-53
2023/09/20 01:08:32;;;;;;;10.80;2.10;;;17.60;1.00;;;;;;5002727;28;20193;-51
2023/09/20 01:10:59;;;;;;;6.63;2.60;;;17.60;1.00;;;;;;5003636;28;20439;-51
2023/09/20 01:13:25;;;;;;;8.73;2.57;;;17.60;1.00;;;;;;5006355;28;20432;-52
2023/09/20 01:15:50;;;;;;;3.03;2.00;;;17.60;1.00;;;;;;5004587;28;20431;-52
2023/09/20 01:18:16;;;;;;;9.13;2.20;;;17.60;1.00;;;;;;5002114;28;20621;-52
2023/09/20 01:20:41;;;;;;;4.37;2.20;;;17.60;1.00;;;;;;5003669;28;20848;-54
2023/09/20 01:23:07;;;;;;;4.60;1.77;;;17.60;1.00;;;;;;5001371;28;20228;-53
2023/09/20 01:25:41;;;;;;;6.50;2.10;;;17.60;1.00;;;;;;5003935;28;20196;-54
2023/09/20 01:28:08;;;;;;;5.53;1.83;;;17.60;1.00;;;;;;5007302;28;20201;-54
2023/09/20 01:30:36;;;;;;;14.13;2.53;;;17.60;1.00;;;;;;4999447;28;20470;-51
2023/09/20 01:33:05;;;;;;;6.37;1.90;;;17.70;1.00;;;;;;5001531;28;20448;-53
2023/09/20 01:35:31;;;;;;;6.33;2.03;;;17.70;1.00;;;;;;4999445;28;20443;-52
2023/09/20 01:37:58;;;;;;;4.60;2.10;;;17.70;1.00;;;;;;4999501;28;20466;-53
2023/09/20 01:40:28;;;;;;;5.50;2.40;;;17.70;1.00;;;;;;5000038;28;20445;-52
2023/09/20 01:42:58;;;;;;;5.80;2.47;;;17.70;1.00;;;;;;5000752;28;20496;-54
2023/09/20 01:45:23;;;;;;;6.57;2.30;;;17.70;1.00;;;;;;5002124;28;20654;-52
2023/09/20 01:47:51;;;;;;;7.63;2.27;;;17.70;1.00;;;;;;5003676;28;20938;-52
2023/09/20 01:50:19;;;;;;;10.67;2.50;;;17.80;1.00;;;;;;5004020;28;20203;-51
2023/09/20 01:53:09;;;;;;;6.17;2.70;;;17.70;1.00;;;;;;4999486;28;20434;-52
2023/09/20 01:55:37;;;;;;;5.47;2.40;;;17.80;1.00;;;;;;5003064;28;20447;-52
2023/09/20 01:58:05;;;;;;;8.67;2.70;;;17.80;1.00;;;;;;5005960;28;20976;-55
2023/09/20 02:00:32;;;;;;;5.63;2.30;;;17.80;1.00;;;;;;4998241;28;20436;-53
2023/09/20 02:03:07;;;;;;;4.37;1.90;;;17.80;1.00;;;;;;5005875;28;20800;-52
2023/09/20 02:05:34;;;;;;;5.37;2.07;;;17.80;1.00;;;;;;5004555;28;20473;-51
2023/09/20 02:08:00;;;;;;;7.43;2.70;;;17.80;1.00;;;;;;5004136;28;20445;-52
2023/09/20 02:10:25;;;;;;;7.37;2.40;;;17.80;1.00;;;;;;4999177;28;20437;-53
2023/09/20 02:12:56;;;;;;;6.40;2.20;;;17.80;1.00;;;;;;5004487;28;20471;-51
2023/09/20 02:15:26;;;;;;;6.97;2.10;;;17.80;1.00;;;;;;5002156;28;20183;-52
2023/09/20 02:17:52;;;;;;;8.37;2.37;;;17.80;1.00;;;;;;5000276;28;20462;-52
2023/09/20 02:20:19;;;;;;;5.50;2.00;;;17.80;1.00;;;;;;5003461;28;20551;-53
2023/09/20 02:22:47;;;;;;;5.27;2.33;;;17.70;1.00;;;;;;5004985;28;20482;-52
2023/09/20 02:25:14;;;;;;;7.63;2.30;;;17.70;1.00;;;;;;5001742;28;20507;-52
2023/09/20 02:27:41;;;;;;;9.37;3.10;;;17.70;1.00;;;;;;5006837;28;20483;-52
2023/09/20 02:30:15;;;;;;;7.00;2.50;;;17.80;1.00;;;;;;4998314;28;20527;-51
2023/09/20 02:32:41;;;;;;;6.47;2.37;;;17.80;1.00;;;;;;5009621;28;20517;-54
2023/09/20 02:35:07;;;;;;;12.80;2.10;;;17.80;1.00;;;;;;5003297;28;20471;-52
2023/09/20 02:37:35;;;;;;;6.50;2.20;;;17.70;1.00;;;;;;5001274;28;22325;-52
2023/09/20 02:40:07;;;;;;;10.37;2.20;;;17.70;1.00;;;;;;5000383;28;20247;-54
2023/09/20 02:42:39;;;;;;;5.33;2.40;;;17.70;1.00;;;;;;5003515;28;20449;-51
2023/09/20 02:45:07;;;;;;;4.67;2.13;;;17.70;1.00;;;;;;5000867;28;20439;-51
2023/09/20 02:47:32;;;;;;;6.37;2.63;;;17.80;1.00;;;;;;4999243;28;20578;-52
2023/09/20 02:49:58;;;;;;;7.57;2.40;;;17.70;1.00;;;;;;4997807;28;20519;-51
2023/09/20 02:52:23;;;;;;;9.63;2.63;;;17.70;1.00;;;;;;5007058;28;20201;-52
2023/09/20 02:54:51;;;;;;;6.73;2.50;;;17.70;1.00;;;;;;5001315;28;20187;-52
2023/09/20 02:57:17;;;;;;;7.27;2.57;;;17.70;1.00;;;;;;4997832;28;20249;-52
2023/09/20 02:59:42;;;;;;;7.13;2.30;;;17.70;1.00;;;;;;5001003;28;20488;-53
2023/09/20 03:02:10;;;;;;;8.13;2.50;;;17.60;1.00;;;;;;5002437;28;20276;-52
2023/09/20 03:04:38;;;;;;;8.37;2.37;;;17.60;1.00;;;;;;5007642;28;20195;-53
2023/09/20 03:07:07;;;;;;;5.47;2.50;;;17.60;1.00;;;;;;5002354;28;20778;-52
2023/09/20 03:09:36;;;;;;;5.57;2.17;;;17.50;1.00;;;;;;5003338;28;20440;-51
2023/09/20 03:12:05;;;;;;;4.47;2.37;;;17.50;1.00;;;;;;5005926;28;20468;-53
2023/09/20 03:14:33;;;;;;;10.30;2.60;;;17.50;1.00;;;;;;5001995;28;20516;-51
2023/09/20 03:17:00;;;;;;;5.90;2.40;;;17.50;1.00;;;;;;5001141;28;20824;-52
2023/09/20 03:19:26;;;;;;;9.13;3.03;;;17.50;1.00;;;;;;5001868;28;20505;-52
2023/09/20 03:21:51;;;;;;;8.53;2.80;;;17.60;1.00;;;;;;5001941;28;20928;-53
2023/09/20 03:24:17;;;;;;;6.13;2.30;;;17.50;1.00;;;;;;4998801;28;20205;-54
2023/09/20 03:26:44;;;;;;;8.10;2.90;;;17.60;1.00;;;;;;4998992;28;20251;-52
2023/09/20 03:29:09;;;;;;;7.97;2.83;;;17.60;1.00;;;;;;4998645;28;20630;-51
2023/09/20 03:31:35;;;;;;;4.50;2.20;;;17.70;1.00;;;;;;4997716;28;20493;-52
2023/09/20 03:34:01;;;;;;;7.60;2.70;;;17.70;1.00;;;;;;4998868;28;20230;-51
2023/09/20 03:36:27;;;;;;;8.37;2.50;;;17.70;1.00;;;;;;5002232;28;20666;-54
2023/09/20 03:38:57;;;;;;;4.13;2.40;;;17.70;1.00;;;;;;4999697;28;20971;-50
2023/09/20 03:41:24;;;;;;;4.17;2.50;;;17.70;1.00;;;;;;4999644;28;20643;-53
2023/09/20 03:43:50;;;;;;;13.47;2.70;;;17.70;1.00;;;;;;4997396;28;20474;-54
2023/09/20 03:46:15;;;;;;;3.60;2.37;;;17.70;1.00;;;;;;5000871;28;20476;-52
2023/09/20 03:48:41;;;;;;;7.93;3.37;;;17.70;1.00;;;;;;5003749;28;20554;-53
2023/09/20 03:51:15;;;;;;;10.47;3.03;;;17.70;1.00;;;;;;4998845;28;20208;-50
2023/09/20 03:53:42;;;;;;;10.43;3.30;;;17.70;1.00;;;;;;5006106;28;20793;-51
2023/09/20 03:56:11;;;;;;;14.13;2.90;;;17.80;1.00;;;;;;5002520;28;20442;-53
2023/09/20 03:58:37;;;;;;;7.17;2.90;;;17.80;1.00;;;;;;5001029;28;20495;-52
2023/09/20 04:01:02;;;;;;;9.33;3.07;;;17.70;1.00;;;;;;4996471;28;20448;-52
2023/09/20 04:03:28;;;;;;;8.93;2.90;;;17.80;1.00;;;;;;4999362;28;20504;-52
2023/09/20 04:05:57;;;;;;;10.93;3.00;;;17.80;1.00;;;;;;5002309;28;20665;-53
2023/09/20 04:08:23;;;;;;;7.67;2.40;;;17.70;1.00;;;;;;5000387;28;20198;-51
2023/09/20 04:10:49;;;;;;;9.87;2.87;;;17.80;1.00;;;;;;4999818;28;20439;-52
2023/09/20 04:13:15;;;;;;;6.07;2.43;;;17.80;1.00;;;;;;4997122;28;20442;-52
2023/09/20 04:15:42;;;;;;;7.63;2.90;;;17.80;1.00;;;;;;5000819;28;20185;-52
2023/09/20 04:18:08;;;;;;;7.80;2.67;;;17.80;1.00;;;;;;5003565;28;20481;-53
2023/09/20 04:20:34;;;;;;;4.47;2.60;;;17.80;1.00;;;;;;5004855;28;20931;-52
2023/09/20 04:23:00;;;;;;;8.17;2.63;;;17.80;1.00;;;;;;4998844;28;20489;-52
2023/09/20 04:25:25;;;;;;;6.37;2.53;;;17.80;1.00;;;;;;5002552;28;20569;-54
2023/09/20 04:27:51;;;;;;;7.60;2.93;;;17.80;1.00;;;;;;5002335;28;20190;-52
2023/09/20 04:30:18;;;;;;;6.53;2.47;;;17.80;1.00;;;;;;4997539;28;20196;-52
2023/09/20 04:32:43;;;;;;;8.40;2.80;;;17.80;1.00;;;;;;5001097;28;20677;-51
2023/09/20 04:35:09;;;;;;;7.50;3.03;;;17.80;1.00;;;;;;5005816;28;20445;-53
2023/09/20 04:37:35;;;;;;;6.30;2.83;;;17.80;1.00;;;;;;5002812;28;20208;-52
2023/09/20 04:40:00;;;;;;;6.07;2.67;;;17.80;1.00;;;;;;5005817;28;20690;-52
2023/09/20 04:42:27;;;;;;;6.87;2.50;;;17.80;1.00;;;;;;5009613;28;20190;-52
2023/09/20 04:44:53;;;;;;;7.30;2.97;;;17.80;1.00;;;;;;5004823;28;20185;-53
2023/09/20 04:47:19;;;;;;;6.10;3.30;;;17.80;1.00;;;;;;5003625;28;20452;-52
2023/09/20 04:49:45;;;;;;;5.97;2.67;;;17.80;1.00;;;;;;5000986;28;20204;-52
2023/09/20 04:52:11;;;;;;;7.63;2.63;;;17.80;1.00;;;;;;5003288;28;20449;-52
2023/09/20 04:54:37;;;;;;;7.17;3.10;;;17.80;1.00;;;;;;5003043;28;20190;-52
2023/09/20 04:57:04;;;;;;;7.33;2.80;;;17.80;1.00;;;;;;5007337;28;20198;-51
2023/09/20 04:59:31;;;;;;;6.90;2.60;;;17.90;1.00;;;;;;5002980;28;20487;-55
2023/09/20 05:01:56;;;;;;;5.03;2.80;;;17.90;1.00;;;;;;5003263;28;20519;-52
2023/09/20 05:04:22;;;;;;;6.90;3.10;;;17.90;1.00;;;;;;5001071;28;20902;-51
2023/09/20 05:06:48;;;;;;;4.93;3.33;;;17.80;1.00;;;;;;5002940;28;20653;-52
2023/09/20 05:09:13;;;;;;;6.77;3.03;;;17.80;1.00;;;;;;5004950;28;20539;-53
2023/09/20 05:11:39;;;;;;;4.90;2.90;;;17.80;1.00;;;;;;5005390;28;20308;-52
2023/09/20 05:14:08;;;;;;;4.20;2.43;;;17.90;1.00;;;;;;5002120;28;20528;-53
2023/09/20 05:16:34;;;;;;;5.90;2.63;;;17.90;1.00;;;;;;5000557;28;20186;-54
2023/09/20 05:18:59;;;;;;;3.53;3.10;;;17.90;1.00;;;;;;5000886;28;20496;-52
2023/09/20 05:21:25;;;;;;;9.40;2.73;;;17.90;1.00;;;;;;5003817;28;20783;-53
2023/09/20 05:23:51;;;;;;;3.47;2.40;;;17.90;1.00;;;;;;4999256;28;20719;-52
2023/09/20 05:26:18;;;;;;;6.37;2.83;;;17.90;1.00;;;;;;5008107;28;20197;-53
2023/09/20 05:28:44;;;;;;;10.57;2.90;;;18.00;1.00;;;;;;5001101;28;20215;-52
2023/09/20 05:31:09;;;;;;;4.53;2.60;;;17.90;1.00;;;;;;5001169;28;20917;-52
2023/09/20 05:33:35;;;;;;;5.13;2.60;;;17.90;1.00;;;;;;4999203;28;20195;-52
2023/09/20 05:36:00;;;;;;;8.23;2.63;;;18.00;1.00;;;;;;5004980;28;20186;-50
2023/09/20 05:38:26;;;;;;;9.10;2.47;;;18.00;1.00;;;;;;5003829;28;20868;-52
2023/09/20 05:40:52;;;;;;;5.20;2.80;;;18.00;1.00;;;;;;5011453;28;20186;-52
2023/09/20 05:43:18;;;;;;;12.53;3.20;;;18.10;1.00;;;;;;5010048;28;20455;-52
2023/09/20 05:45:43;;;;;;;9.87;3.40;;;18.10;1.00;;;;;;5002560;28;20197;-51
2023/09/20 05:48:12;;;;;;;10.30;2.90;;;18.00;1.00;;;;;;4999554;28;20194;-51
2023/09/20 05:50:41;;;;;;;7.80;3.07;;;18.00;1.00;;;;;;5000917;28;20208;-50
2023/09/20 05:53:07;;;;;;;6.83;1.93;;;17.90;1.00;;;;;;4998901;28;20451;-53
2023/09/20 05:55:43;;;;;;;6.20;3.53;;;18.00;1.00;;;;;;4999967;28;20445;-51
2023/09/20 05:58:09;;;;;;;13.23;2.70;;;18.10;1.00;;;;;;4998577;28;20484;-52
2023/09/20 06:00:35;;;;;;;11.70;2.90;;;18.10;1.00;;;;;;5000584;28;20466;-53
2023/09/20 06:03:03;;;;;;;13.07;3.60;;;18.10;1.00;;;;;;5000477;28;20202;-49
2023/09/20 06:05:31;;;;;;;5.33;2.80;;;18.20;1.00;;;;;;4999045;28;20811;-54
2023/09/20 06:07:57;;;;;;;6.50;2.87;;;18.30;1.00;;;;;;4999711;28;20441;-53
2023/09/20 06:10:23;;;;;;;6.97;2.93;;;18.40;1.00;;;;;;5002673;28;20477;-52
2023/09/20 06:12:53;;;;;;;8.90;2.90;;;18.40;1.00;;;;;;5000290;28;20439;-51
2023/09/20 06:15:19;;;;;;;7.70;2.57;;;18.50;1.00;;;;;;4999061;28;20454;-52
2023/09/20 06:17:47;;;;;;;5.10;2.57;;;18.50;1.00;;;;;;4998427;28;20443;-52
2023/09/20 06:20:19;;;;;;;8.40;2.80;;;18.50;1.00;;;;;;5004863;28;20960;-52
2023/09/20 06:22:51;;;;;;;7.53;3.00;;;18.50;1.00;;;;;;5002060;28;20470;-53
2023/09/20 06:25:20;;;;;;;5.77;2.67;;;18.60;1.00;;;;;;5001590;28;20441;-52
2023/09/20 06:27:46;;;;;;;6.60;2.70;;;18.60;1.00;;;;;;5004758;28;20493;-49
2023/09/20 06:30:12;;;;;;;6.27;2.93;;;18.50;1.00;;;;;;5001535;28;20475;-52
2023/09/20 06:32:38;;;;;;;7.40;2.97;;;18.60;1.00;;;;;;5002458;28;20488;-52
2023/09/20 06:35:04;;;;;;;6.07;2.57;;;18.60;1.00;;;;;;5000302;28;20452;-51
2023/09/20 06:37:30;;;;;;;8.40;3.10;;;18.60;1.00;;;;;;4999149;28;20505;-53
2023/09/20 06:39:56;;;;;;;6.97;2.93;;;18.60;1.00;;;;;;4998788;28;20997;-52
2023/09/20 06:42:25;;;;;;;6.13;3.00;;;18.70;1.00;;;;;;4998163;28;20234;-52
2023/09/20 06:44:52;;;;;;;5.93;2.80;;;18.70;1.00;;;;;;4997981;28;20540;-52
2023/09/20 06:47:18;;;;;;;10.30;3.13;;;18.70;1.00;;;;;;5002461;28;20476;-50
2023/09/20 06:49:44;;;;;;;6.37;2.70;;;18.60;1.00;;;;;;4998838;28;20443;-52
2023/09/20 06:52:11;;;;;;;5.83;3.10;;;18.60;1.00;;;;;;4998069;28;20463;-52
2023/09/20 06:54:38;;;;;;;8.83;3.10;;;18.70;1.00;;;;;;5007786;28;20200;-52
2023/09/20 06:57:05;;;;;;;6.80;2.90;;;18.70;1.00;;;;;;4999364;28;20442;-52
2023/09/20 06:59:37;;;;;;;7.37;2.50;;;18.70;1.00;;;;;;4997782;28;20966;-52
2023/09/20 07:02:03;;;;;;;6.63;2.70;;;18.70;1.00;;;;;;4997879;28;20456;-53
2023/09/20 07:04:30;;;;;;;15.03;3.20;;;18.70;1.00;;;;;;4997523;28;20461;-52
2023/09/20 07:06:57;;;;;;;8.30;3.00;;;18.70;1.00;;;;;;4998324;28;20445;-52
2023/09/20 07:09:23;;;;;;;8.00;3.00;;;18.70;1.00;;;;;;4998182;28;20459;-53
2023/09/20 07:11:53;;;;;;;10.63;3.03;;;18.70;1.00;;;;;;4997553;28;20455;-52
2023/09/20 07:14:23;;;;;;;7.17;3.10;;;18.80;1.00;;;;;;5000517;28;20198;-51
2023/09/20 07:16:52;;;;;;;9.10;3.80;;;18.70;1.00;;;;;;5000933;28;20944;-53
2023/09/20 07:19:22;;;;;;;5.83;2.97;;;18.80;1.00;;;;;;4998817;28;20516;-52
2023/09/20 07:21:48;;;;;;;5.90;2.70;;;18.90;1.00;;;;;;4998098;28;20572;-52
2023/09/20 07:24:14;;;;;;;12.47;3.23;;;18.90;1.00;;;;;;4997650;28;20560;-50
2023/09/20 07:26:43;;;;;;;7.03;2.67;;;19.00;1.00;;;;;;4997506;28;20949;-52
2023/09/20 07:29:09;;;;;;;5.70;2.77;;;19.00;1.00;;;;;;5001455;28;20801;-52
2023/09/20 07:31:36;;;;;;;8.97;3.50;;;19.10;1.00;;;;;;4998150;28;20441;-51
2023/09/20 07:34:06;;;;;;;10.03;2.50;;;19.20;1.00;;;;;;5000907;28;20534;-52
2023/09/20 07:36:36;;;;;;;9.23;2.90;;;19.20;1.00;;;;;;4997278;28;20439;-51
2023/09/20 07:39:08;;;;;;;5.00;2.93;;;19.30;1.00;;;;;;4997315;28;21062;-50
2023/09/20 07:41:34;;;;;;;8.70;3.00;;;19.40;1.00;;;;;;5000395;28;20439;-51
2023/09/20 07:44:00;;;;;;;4.90;2.50;;;19.40;1.00;;;;;;4998744;28;20522;-52
2023/09/20 07:46:26;;;;;;;7.57;3.53;;;19.40;1.00;;;;;;4997525;28;20443;-53
2023/09/20 07:48:52;;;;;;;8.63;2.87;;;19.40;1.00;;;;;;4996441;28;20446;-52
2023/09/20 07:51:20;;;;;;;7.97;2.80;;;19.40;1.00;;;;;;4997173;28;20220;-52
2023/09/20 07:53:53;;;;;;;5.60;2.70;;;19.40;1.00;;;;;;5000853;28;20243;-53
2023/09/20 07:56:20;;;;;;;7.90;2.60;;;19.40;1.00;;;;;;4998778;28;20451;-52
2023/09/20 07:58:45;;;;;;;9.27;2.70;;;19.40;1.00;;;;;;4996967;28;20522;-54
2023/09/20 08:01:18;;;;;;;8.27;3.70;;;19.60;1.00;;;;;;4996969;28;20503;-52
2023/09/20 08:03:50;;;;;;;5.67;2.60;;;19.60;1.00;;;;;;4997081;28;20282;-52
2023/09/20 08:06:20;;;;;;;6.90;3.03;;;19.90;1.00;;;;;;5000896;28;20940;-52
2023/09/20 08:08:47;;;;;;;6.03;2.60;;;20.10;1.00;;;;;;4996463;28;20459;-51
2023/09/20 08:11:13;;;;;;;6.03;2.40;;;20.70;1.00;;;;;;4997055;28;20473;-52
2023/09/20 08:13:38;;;;;;;6.13;2.43;;;21.30;1.00;;;;;;4997421;28;20974;-52
2023/09/20 08:16:04;;;;;;;11.87;2.73;;;21.90;1.00;;;;;;4997205;28;20531;-51
2023/09/20 08:21:14;;;;;;;7.63;2.53;;;23.00;1.00;;;;;;4996769;28;20560;-51
2023/09/20 09:02:14;;;;;;;7.60;2.67;;;23.80;1.00;;;;;;5004288;28;20450;-51
2023/09/20 09:04:45;;;;;;;5.60;2.40;;;23.60;1.00;;;;;;5002835;28;20450;-52
2023/09/20 09:07:12;;;;;;;5.97;2.47;;;23.70;1.00;;;;;;5001228;28;20453;-51
2023/09/20 09:09:38;;;;;;;6.80;2.40;;;23.60;1.00;;;;;;5000392;28;20440;-52
2023/09/20 09:12:04;;;;;;;3.83;2.37;;;22.90;1.00;;;;;;5001720;28;20541;-51
2023/09/20 09:14:35;;;;;;;6.20;2.20;;;22.40;1.00;;;;;;5001528;28;20439;-52
2023/09/20 09:17:02;;;;;;;3.10;1.90;;;22.10;1.00;;;;;;5003601;28;20437;-52
2023/09/20 09:19:28;;;;;;;4.87;2.13;;;21.90;1.00;;;;;;5002361;28;20467;-52
2023/09/20 09:21:55;;;;;;;8.03;2.30;;;21.80;1.00;;;;;;5005384;28;20456;-53
2023/09/20 09:24:21;;;;;;;5.33;2.50;;;21.70;1.00;;;;;;4999843;28;20435;-51
2023/09/20 09:26:47;;;;;;;8.63;2.57;;;21.80;1.00;;;;;;5007766;28;20979;-52
2023/09/20 09:29:17;;;;;;;6.03;2.67;;;21.90;1.00;;;;;;4999516;28;20185;-51
2023/09/20 09:31:48;;;;;;;8.33;2.80;;;21.90;1.00;;;;;;5000373;28;23715;-52
2023/09/20 09:34:18;;;;;;;2.83;1.97;;;21.90;1.00;;;;;;4999815;28;20545;-51
2023/09/20 09:36:44;;;;;;;10.83;2.10;;;21.80;1.00;;;;;;4999342;28;20470;-52
2023/09/20 09:39:10;;;;;;;3.80;2.13;;;21.90;1.00;;;;;;4999947;28;20471;-52
2023/09/20 09:41:43;;;;;;;6.83;2.63;;;21.90;1.00;;;;;;5007236;28;20629;-52
2023/09/20 09:44:08;;;;;;;4.40;2.10;;;22.00;1.00;;;;;;5006592;28;20577;-52
2023/09/20 09:46:36;;;;;;;6.90;2.50;;;21.90;1.00;;;;;;5003787;28;20465;-54
2023/09/20 09:49:03;;;;;;;7.80;2.60;;;21.90;1.00;;;;;;4999300;28;20193;-52
2023/09/20 09:51:32;;;;;;;3.57;2.10;;;22.00;1.00;;;;;;5005356;28;20486;-53
2023/09/20 09:54:00;;;;;;;7.67;3.10;;;22.00;1.00;;;;;;5004054;28;20443;-52
2023/09/20 09:56:27;;;;;;;5.60;2.53;;;21.90;1.00;;;;;;5003509;28;20475;-52
2023/09/20 09:58:52;;;;;;;5.40;2.37;;;21.90;1.00;;;;;;4998755;28;20474;-52
2023/09/20 10:01:21;;;;;;;5.40;2.60;;;21.90;1.00;;;;;;5002650;28;20507;-52
2023/09/20 10:03:50;;;;;;;10.17;3.17;;;21.90;1.00;;;;;;5006368;28;20223;-52
2023/09/20 10:06:22;;;;;;;5.40;2.50;;;21.90;1.00;;;;;;4999183;28;20432;-51
2023/09/20 10:08:53;;;;;;;6.67;2.63;;;22.00;1.00;;;;;;4998845;28;20522;-51
2023/09/20 10:11:22;;;;;;;7.73;2.00;;;22.20;1.00;;;;;;5005559;28;20450;-53
2023/09/20 10:13:48;;;;;;;5.10;2.37;;;22.20;1.00;;;;;;4998350;28;20440;-51
2023/09/20 10:16:18;;;;;;;4.40;1.90;;;22.20;1.00;;;;;;4999340;28;21038;-52
2023/09/20 10:18:51;;;;;;;7.13;2.67;;;22.20;1.00;;;;;;4999354;28;20346;-52
2023/09/20 10:21:22;;;;;;;4.50;2.23;;;22.20;1.00;;;;;;5003488;28;20841;-51
2023/09/20 10:23:48;;;;;;;4.50;2.50;;;22.40;1.00;;;;;;5005758;28;20517;-52
2023/09/20 10:26:15;;;;;;;6.93;2.40;;;22.60;1.00;;;;;;5004623;28;20478;-51
2023/09/20 10:28:43;;;;;;;5.00;2.40;;;22.60;1.00;;;;;;5003712;28;20440;-50
2023/09/20 10:31:17;;;;;;;5.60;2.23;;;22.60;1.00;;;;;;5001427;28;20474;-50
2023/09/20 10:33:51;;;;;;;4.70;2.20;;;22.70;1.00;;;;;;5005419;28;20431;-52
2023/09/20 10:36:22;;;;;;;6.30;2.77;;;23.20;1.00;;;;;;4999881;28;20493;-51
2023/09/20 10:38:48;;;;;;;4.23;2.43;;;23.70;1.00;;;;;;4998303;28;20562;-52
2023/09/20 10:41:17;;;;;;;4.77;2.83;;;24.30;1.00;;;;;;4999134;28;20448;-50
2023/09/20 10:43:46;;;;;;;8.93;2.90;;;24.80;1.00;;;;;;4999673;28;21014;-51
2023/09/20 10:46:17;;;;;;;6.33;2.90;;;24.90;1.00;;;;;;4998351;28;20475;-51
2023/09/20 10:48:50;;;;;;;5.80;2.90;;;24.70;1.00;;;;;;4998591;28;20493;-52
2023/09/20 10:51:44;;;;;;;5.20;2.60;;;25.10;1.00;;;;;;5002417;28;20980;-51
2023/09/20 10:54:19;;;;;;;7.20;2.80;;;25.70;1.00;;;;;;4998264;28;21019;-50
2023/09/20 10:56:53;;;;;;;6.00;2.73;;;26.20;1.00;;;;;;4999292;28;20979;-50
2023/09/20 10:59:21;;;;;;;5.50;2.50;;;26.30;1.00;;;;;;5005231;28;21013;-50
2023/09/20 11:01:59;;;;;;;14.37;3.83;;;25.90;1.00;;;;;;5003127;28;20498;-51
2023/09/20 11:04:25;;;;;;;9.13;3.60;;;26.10;1.00;;;;;;5001597;28;20459;-50
2023/09/20 11:06:54;;;;;;;5.57;3.07;;;26.70;1.00;;;;;;5000649;28;20439;-51
2023/09/20 11:09:20;;;;;;;5.93;2.93;;;27.70;1.00;;;;;;5002828;28;20947;-51
2023/09/20 11:11:47;;;;;;;6.97;3.30;;;27.20;1.00;;;;;;5005929;28;20443;-51
2023/09/20 11:14:13;;;;;;;5.23;2.90;;;26.60;1.00;;;;;;5002819;28;20193;-50
2023/09/20 11:16:44;;;;;;;8.20;2.70;;;25.90;1.00;;;;;;5004232;28;20435;-50
2023/09/20 11:19:13;;;;;;;7.63;3.27;;;25.40;1.00;;;;;;4996881;28;20232;-50
2023/09/20 11:21:40;;;;;;;7.53;3.00;;;25.00;1.00;;;;;;5001862;28;20443;-51
2023/09/20 11:24:11;;;;;;;5.70;3.27;;;24.60;1.00;;;;;;4997003;28;20958;-51
2023/09/20 11:26:40;;;;;;;9.73;4.00;;;24.60;1.00;;;;;;4997223;28;20432;-50
2023/09/20 11:29:08;;;;;;;9.67;3.53;;;24.90;1.00;;;;;;4996664;28;20840;-53
2023/09/20 11:31:35;;;;;;;6.87;3.13;;;25.40;1.00;;;;;;5000949;28;20963;-51
2023/09/20 11:34:03;;;;;;;7.70;3.20;;;25.60;1.00;;;;;;5009456;28;20531;-51
2023/09/20 11:36:38;;;;;;;6.20;2.90;;;26.20;1.00;;;;;;4999315;28;20510;-52
2023/09/20 11:39:05;;;;;;;6.07;3.03;;;26.60;1.00;;;;;;4998986;28;20979;-50
2023/09/20 11:41:32;;;;;;;7.23;3.03;;;26.90;1.00;;;;;;4996998;28;20451;-51
2023/09/20 11:43:58;;;;;;;6.93;3.43;;;26.90;1.00;;;;;;5001938;28;20535;-51
2023/09/20 11:46:28;;;;;;;8.17;2.97;;;27.10;1.00;;;;;;4997559;28;20530;-52
2023/09/20 11:49:02;;;;;;;7.23;2.97;;;26.90;1.00;;;;;;5001676;28;20439;-51
2023/09/20 11:51:31;;;;;;;8.37;3.13;;;27.10;1.00;;;;;;4996972;28;20442;-51
2023/09/20 11:53:58;;;;;;;9.17;3.40;;;27.50;1.00;;;;;;4996758;28;20949;-49
2023/09/20 11:56:30;;;;;;;6.73;3.10;;;28.30;1.00;;;;;;4996934;28;20436;-49
2023/09/20 11:58:59;;;;;;;6.67;3.20;;;29.10;1.00;;;;;;4998987;28;20952;-50
2023/09/20 12:01:33;;;;;;;4.50;2.47;;;29.20;1.00;;;;;;4997426;28;20460;-49
2023/09/20 12:03:59;;;;;;;11.60;2.83;;;29.30;1.00;;;;;;4998148;28;20432;-50
2023/09/20 12:06:25;;;;;;;4.40;3.00;;;29.20;1.00;;;;;;4997443;28;21054;-50
2023/09/20 12:08:54;;;;;;;9.27;3.00;;;29.30;1.00;;;;;;4996764;28;20546;-50
2023/09/20 12:11:20;;;;;;;5.50;3.07;;;29.40;1.00;;;;;;4997426;28;20208;-50
2023/09/20 12:13:46;;;;;;;6.43;2.80;;;29.50;1.00;;;;;;4996765;28;20962;-51
2023/09/20 12:16:14;;;;;;;5.73;2.60;;;29.50;99.90;;;;;;4997339;28;20447;-50
2023/09/20 12:18:42;;;;;;;6.40;2.63;;;29.80;99.90;;;;;;5000468;28;20483;-50
2023/09/20 12:21:09;;;;;;;6.03;2.93;;;29.60;99.90;;;;;;4997735;28;20447;-50
2023/09/20 12:23:35;;;;;;;8.30;3.07;;;29.30;99.90;;;;;;4996724;28;20967;-50
2023/09/20 12:26:03;;;;;;;7.87;3.13;;;29.20;99.90;;;;;;4996392;28;20791;-49
2023/09/20 12:28:29;;;;;;;9.70;3.10;;;29.20;99.90;;;;;;5000689;28;20444;-50
2023/09/20 12:30:55;;;;;;;5.30;2.60;;;29.00;99.90;;;;;;4999770;28;20481;-50
2023/09/20 12:33:21;;;;;;;6.50;2.83;;;29.50;99.90;;;;;;4997242;28;20447;-50
2023/09/20 12:35:47;;;;;;;5.40;3.03;;;29.40;99.90;;;;;;4999385;28;20435;-51
2023/09/20 12:38:13;;;;;;;5.13;2.80;;;29.60;99.90;;;;;;4996338;28;20648;-50
2023/09/20 12:40:39;;;;;;;10.40;3.20;;;29.50;99.90;;;;;;4997031;28;20189;-51
2023/09/20 12:43:05;;;;;;;9.63;2.93;;;28.70;99.90;;;;;;5012835;28;20443;-50
2023/09/20 12:45:32;;;;;;;8.13;3.13;;;28.90;99.90;;;;;;5001014;28;20466;-51
2023/09/20 12:47:57;;;;;;;6.10;3.30;;;29.50;99.90;;;;;;4999808;28;20939;-49
2023/09/20 12:50:23;;;;;;;9.67;3.00;;;30.00;99.90;;;;;;5010126;28;20478;-50
2023/09/20 12:52:49;;;;;;;6.07;3.50;;;29.40;99.90;;;;;;4999089;28;20192;-53
2023/09/20 12:55:15;;;;;;;9.40;3.30;;;28.40;99.90;;;;;;5000898;28;20185;-51
2023/09/20 12:57:41;;;;;;;5.37;2.93;;;27.80;1.00;;;;;;5001709;28;20196;-51
2023/09/20 13:00:09;;;;;;;8.87;3.47;;;28.30;99.90;;;;;;5004341;28;21606;-50
2023/09/20 13:02:35;;;;;;;7.63;2.90;;;28.90;99.90;;;;;;5004467;28;20445;-51
2023/09/20 13:05:01;;;;;;;6.03;3.07;;;28.70;99.90;;;;;;4999689;28;20435;-50
2023/09/20 13:07:27;;;;;;;6.97;3.00;;;28.40;99.90;;;;;;5000057;28;20191;-51
2023/09/20 13:09:55;;;;;;;6.10;3.20;;;28.00;99.90;;;;;;5006787;28;20493;-51
2023/09/20 13:12:21;;;;;;;6.07;3.53;;;27.60;99.90;;;;;;5001696;28;20443;-51
2023/09/20 13:14:46;;;;;;;4.70;3.30;;;27.30;99.90;;;;;;5000538;28;20439;-52
2023/09/20 13:17:12;;;;;;;6.07;3.20;;;27.80;99.90;;;;;;4999481;28;20215;-51
2023/09/20 13:19:38;;;;;;;5.97;2.90;;;28.70;99.90;;;;;;5000448;28;20209;-51
2023/09/20 13:22:05;;;;;;;10.00;3.07;;;28.90;99.90;;;;;;4999499;28;20279;-51
2023/09/20 13:24:34;;;;;;;4.00;2.77;;;29.20;99.90;;;;;;4999745;28;20191;-50
2023/09/20 13:27:00;;;;;;;7.10;3.53;;;29.30;99.90;;;;;;5003888;28;20870;-51
2023/09/20 13:29:27;;;;;;;4.33;2.80;;;28.90;99.90;;;;;;5000414;28;20472;-51
2023/09/20 13:31:54;;;;;;;4.77;2.80;;;28.90;99.90;;;;;;4999842;28;20851;-51
2023/09/20 13:34:22;;;;;;;3.87;2.87;;;28.40;99.90;;;;;;4999291;28;20562;-51
2023/09/20 13:36:48;;;;;;;5.00;2.80;;;27.90;99.90;;;;;;5003724;28;20440;-51